createdAt,value
2023-05-03T00:01:17.835Z,9.26
2023-05-03T00:04:03.896Z,9.24
2023-05-03T00:06:50.480Z,9.25
2023-05-03T00:09:36.135Z,9.25
2023-05-03T00:12:21.775Z,9.23
2023-05-03T00:15:08.919Z,9.19
2023-05-03T00:17:54.302Z,9.17
2023-05-03T00:20:39.562Z,9.12
2023-05-03T00:23:25.362Z,9.07
2023-05-03T00:26:10.912Z,9.03
2023-05-03T00:28:57.665Z,9.01
2023-05-03T00:31:46.049Z,9.02
2023-05-03T00:34:31.402Z,9.02
2023-05-03T00:37:16.916Z,9.01
2023-05-03T00:40:02.629Z,9.00
2023-05-03T00:42:48.219Z,9.00
2023-05-03T00:45:36.865Z,8.97
2023-05-03T00:48:22.262Z,8.98
2023-05-03T00:51:08.998Z,9.00
2023-05-03T00:53:54.998Z,8.96
2023-05-03T00:56:51.179Z,8.92
2023-05-03T00:59:37.950Z,8.92
2023-05-03T01:02:24.889Z,8.93
2023-05-03T01:05:10.950Z,8.97
2023-05-03T01:08:20.182Z,8.97
2023-05-03T01:11:15.040Z,8.96
2023-05-03T01:14:51.827Z,8.95
2023-05-03T01:17:42.299Z,8.96
2023-05-03T01:20:31.046Z,8.96
2023-05-03T01:23:33.000Z,8.96
2023-05-03T01:26:24.547Z,8.95
2023-05-03T01:29:11.019Z,8.98
2023-05-03T01:32:04.143Z,9.02
2023-05-03T01:35:05.397Z,9.10
2023-05-03T01:37:52.334Z,9.12
2023-05-03T01:40:49.012Z,9.10
2023-05-03T01:43:35.615Z,9.10
2023-05-03T01:46:21.324Z,9.09
2023-05-03T01:49:06.852Z,9.14
2023-05-03T01:51:52.333Z,9.17
2023-05-03T01:54:37.894Z,9.18
2023-05-03T01:57:23.138Z,9.17
2023-05-03T02:00:09.952Z,9.18
2023-05-03T02:02:58.461Z,9.19
2023-05-03T02:05:44.213Z,9.24
2023-05-03T02:08:29.468Z,9.24
2023-05-03T02:11:15.050Z,9.25
2023-05-03T02:14:00.555Z,9.26
2023-05-03T02:16:46.014Z,9.28
2023-05-03T02:19:32.270Z,9.30
2023-05-03T02:22:19.739Z,9.30
2023-05-03T02:25:06.945Z,9.30
2023-05-03T02:27:52.572Z,9.31
2023-05-03T02:30:38.428Z,9.30
2023-05-03T02:33:24.297Z,9.31
2023-05-03T02:36:09.729Z,9.30
2023-05-03T02:38:55.856Z,9.28
2023-05-03T02:41:41.116Z,9.26
2023-05-03T02:44:26.859Z,9.27
2023-05-03T02:47:12.265Z,9.29
2023-05-03T02:50:01.047Z,9.27
2023-05-03T02:52:49.845Z,9.26
2023-05-03T02:55:35.588Z,9.22
2023-05-03T02:58:21.745Z,9.23
2023-05-03T03:01:07.278Z,9.23
2023-05-03T03:03:53.568Z,9.24
2023-05-03T03:06:39.364Z,9.21
2023-05-03T03:09:24.643Z,9.17
2023-05-03T03:12:10.460Z,9.12
2023-05-03T03:14:56.012Z,9.07
2023-05-03T03:17:42.908Z,9.01
2023-05-03T03:20:29.637Z,8.96
2023-05-03T03:23:15.621Z,8.95
2023-05-03T03:26:01.719Z,8.95
2023-05-03T03:28:47.534Z,8.95
2023-05-03T03:31:33.181Z,8.95
2023-05-03T03:34:19.309Z,8.88
2023-05-03T03:37:05.517Z,8.85
2023-05-03T03:39:51.688Z,8.85
2023-05-03T03:42:37.808Z,8.82
2023-05-03T03:45:23.819Z,8.87
2023-05-03T03:48:09.810Z,8.92
2023-05-03T03:50:55.085Z,8.95
2023-05-03T03:53:44.879Z,8.99
2023-05-03T03:56:31.361Z,9.06
2023-05-03T03:59:16.843Z,9.11
2023-05-03T04:02:03.841Z,9.14
2023-05-03T04:04:49.261Z,9.19
2023-05-03T04:07:36.529Z,9.17
2023-05-03T04:10:22.388Z,9.21
2023-05-03T04:13:08.806Z,9.22
2023-05-03T04:15:56.472Z,9.21
2023-05-03T04:18:43.110Z,9.24
2023-05-03T04:21:28.842Z,9.24
2023-05-03T04:24:17.593Z,9.27
2023-05-03T04:27:04.646Z,9.29
2023-05-03T04:29:52.725Z,9.29
2023-05-03T04:32:40.743Z,9.28
2023-05-03T04:35:29.494Z,9.26
2023-05-03T04:38:18.930Z,9.25
2023-05-03T04:41:05.185Z,9.24
2023-05-03T04:43:50.883Z,9.20
2023-05-03T04:46:36.939Z,9.21
2023-05-03T04:49:22.573Z,9.18
2023-05-03T04:52:08.276Z,9.15
2023-05-03T04:54:54.485Z,9.13
2023-05-03T04:57:41.391Z,9.09
2023-05-03T05:00:29.021Z,9.06
2023-05-03T05:03:19.749Z,8.99
2023-05-03T05:06:07.104Z,8.93
2023-05-03T05:08:53.372Z,8.88
2023-05-03T05:11:38.567Z,8.85
2023-05-03T05:14:24.233Z,8.82
2023-05-03T05:17:09.840Z,8.82
2023-05-03T05:19:55.465Z,8.82
2023-05-03T05:22:41.639Z,8.87
2023-05-03T05:25:27.430Z,8.92
2023-05-03T05:28:13.548Z,8.95
2023-05-03T05:30:59.457Z,9.01
2023-05-03T05:33:45.283Z,9.12
2023-05-03T05:36:31.682Z,9.24
2023-05-03T05:39:17.992Z,9.33
2023-05-03T05:42:05.116Z,9.46
2023-05-03T05:44:52.465Z,9.57
2023-05-03T05:47:39.292Z,9.70
2023-05-03T05:50:25.111Z,9.83
2023-05-03T05:53:15.955Z,9.96
2023-05-03T05:56:08.997Z,10.08
2023-05-03T05:58:56.112Z,10.21
2023-05-03T06:01:44.749Z,10.30
2023-05-03T06:04:31.114Z,10.39
2023-05-03T06:07:17.089Z,10.46
2023-05-03T06:10:03.125Z,10.51
2023-05-03T06:12:49.175Z,10.58
2023-05-03T06:15:40.815Z,10.62
2023-05-03T06:18:26.383Z,10.66
2023-05-03T06:21:12.087Z,10.72
2023-05-03T06:23:58.112Z,10.79
2023-05-03T06:26:45.115Z,10.84
2023-05-03T06:29:30.984Z,10.91
2023-05-03T06:32:16.509Z,10.97
2023-05-03T06:35:02.330Z,11.03
2023-05-03T06:37:48.633Z,11.10
2023-05-03T06:40:35.970Z,11.17
2023-05-03T06:43:23.614Z,11.23
2023-05-03T06:46:13.192Z,11.30
2023-05-03T06:48:58.765Z,11.36
2023-05-03T06:51:44.501Z,11.42
2023-05-03T06:54:29.725Z,11.51
2023-05-03T06:57:15.097Z,11.56
2023-05-03T07:00:00.637Z,11.64
2023-05-03T07:02:46.324Z,11.74
2023-05-03T07:05:31.651Z,11.81
2023-05-03T07:08:17.810Z,11.89
2023-05-03T07:11:04.304Z,11.96
2023-05-03T07:13:53.803Z,12.04
2023-05-03T07:16:39.405Z,12.11
2023-05-03T07:19:24.807Z,12.12
2023-05-03T07:22:10.269Z,12.16
2023-05-03T07:24:57.439Z,12.19
2023-05-03T07:27:43.714Z,12.26
2023-05-03T07:30:29.538Z,12.28
2023-05-03T07:33:15.198Z,12.33
2023-05-03T07:36:00.643Z,12.38
2023-05-03T07:38:46.554Z,12.41
2023-05-03T07:41:32.265Z,12.47
2023-05-03T07:44:17.618Z,12.49
2023-05-03T07:47:02.885Z,12.56
2023-05-03T07:49:50.862Z,12.57
2023-05-03T07:52:39.885Z,12.52
2023-05-03T07:55:25.748Z,12.48
2023-05-03T07:58:12.006Z,12.48
2023-05-03T08:00:57.632Z,12.44
2023-05-03T08:03:44.433Z,12.47
2023-05-03T08:06:29.957Z,12.46
2023-05-03T08:09:15.801Z,12.48
2023-05-03T08:12:02.602Z,12.51
2023-05-03T08:14:48.274Z,12.54
2023-05-03T08:17:40.980Z,12.59
2023-05-03T08:20:29.602Z,12.63
2023-05-03T08:23:19.438Z,12.67
2023-05-03T08:26:07.766Z,12.74
2023-05-03T08:28:53.076Z,12.78
2023-05-03T08:31:38.538Z,12.82
2023-05-03T08:34:24.209Z,12.91
2023-05-03T08:37:09.846Z,12.99
2023-05-03T08:39:55.653Z,13.10
2023-05-03T08:42:45.387Z,13.20
2023-05-03T08:45:33.417Z,13.28
2023-05-03T08:48:19.356Z,13.36
2023-05-03T08:51:05.440Z,13.45
2023-05-03T08:53:51.362Z,13.53
2023-05-03T08:56:42.095Z,13.63
2023-05-03T08:59:29.533Z,13.72
2023-05-03T09:02:16.492Z,13.81
2023-05-03T09:05:02.488Z,13.90
2023-05-03T09:08:09.448Z,13.97
2023-05-03T09:10:54.940Z,13.93
2023-05-03T09:13:41.315Z,13.89
2023-05-03T09:16:27.588Z,13.86
2023-05-03T09:19:14.960Z,13.98
2023-05-03T09:22:07.641Z,14.06
2023-05-03T09:24:58.324Z,14.04
2023-05-03T09:27:43.721Z,14.05
2023-05-03T09:30:30.290Z,14.13
2023-05-03T09:33:23.128Z,14.14
2023-05-03T09:36:08.996Z,14.20
2023-05-03T09:38:56.124Z,14.28
2023-05-03T09:41:41.395Z,14.36
2023-05-03T09:44:48.950Z,14.47
2023-05-03T09:47:50.884Z,14.58
2023-05-03T09:50:36.897Z,14.63
2023-05-03T09:53:23.489Z,14.70
2023-05-03T09:56:13.280Z,14.81
2023-05-03T09:58:59.356Z,14.88
2023-05-03T10:01:45.292Z,14.91
2023-05-03T10:04:39.103Z,14.96
2023-05-03T10:07:28.575Z,14.99
2023-05-03T10:10:14.546Z,14.86
2023-05-03T10:13:03.483Z,14.79
2023-05-03T10:16:14.001Z,14.64
2023-05-03T10:19:21.583Z,14.79
2023-05-03T10:22:09.223Z,14.82
2023-05-03T10:24:57.497Z,14.96
2023-05-03T10:27:45.911Z,15.09
2023-05-03T10:30:36.450Z,15.15
2023-05-03T10:33:32.705Z,15.17
2023-05-03T10:36:18.615Z,15.06
2023-05-03T10:39:04.350Z,15.05
2023-05-03T10:42:01.976Z,15.05
2023-05-03T10:44:54.931Z,15.01
2023-05-03T10:47:40.915Z,15.04
2023-05-03T10:50:27.076Z,15.00
2023-05-03T10:53:38.147Z,15.02
2023-05-03T10:56:24.191Z,14.97
2023-05-03T10:59:09.438Z,14.94
2023-05-03T11:01:55.358Z,14.98
2023-05-03T11:04:45.750Z,15.03
2023-05-03T11:07:31.919Z,14.99
2023-05-03T11:10:18.930Z,15.07
2023-05-03T11:13:05.096Z,15.05
2023-05-03T11:15:50.950Z,15.11
2023-05-03T11:18:36.583Z,15.14
2023-05-03T11:21:23.252Z,14.98
2023-05-03T11:24:08.995Z,14.91
2023-05-03T11:26:54.534Z,14.90
2023-05-03T11:29:39.891Z,14.92
2023-05-03T11:32:29.919Z,15.11
2023-05-03T11:35:15.564Z,15.18
2023-05-03T11:38:01.438Z,15.07
2023-05-03T11:40:46.930Z,14.89
2023-05-03T11:43:32.634Z,14.81
2023-05-03T11:46:25.336Z,14.86
2023-05-03T11:49:10.974Z,14.93
2023-05-03T11:51:56.938Z,15.11
2023-05-03T11:54:42.508Z,15.25
2023-05-03T11:57:28.168Z,15.38
2023-05-03T12:00:17.239Z,15.48
2023-05-03T12:03:02.653Z,15.68
2023-05-03T12:05:49.853Z,15.89
2023-05-03T12:08:37.584Z,15.97
2023-05-03T12:11:27.282Z,15.95
2023-05-03T12:14:13.750Z,15.95
2023-05-03T12:17:00.457Z,16.03
2023-05-03T12:19:48.814Z,16.13
2023-05-03T12:22:35.172Z,16.24
2023-05-03T12:25:25.722Z,16.20
2023-05-03T12:28:20.148Z,16.15
2023-05-03T12:31:06.562Z,16.11
2023-05-03T12:36:43.861Z,16.09
2023-05-03T12:39:32.393Z,16.09
2023-05-03T12:42:21.827Z,16.12
2023-05-03T12:47:57.818Z,15.95
2023-05-03T12:50:45.408Z,15.86
2023-05-03T12:53:31.877Z,15.69
2023-05-03T12:56:17.788Z,15.67
2023-05-03T12:59:31.789Z,15.59
2023-05-03T13:05:00.783Z,15.18
2023-05-03T13:07:55.691Z,15.10
2023-05-03T13:10:43.877Z,15.23
2023-05-03T13:13:29.248Z,15.62
2023-05-03T13:16:14.704Z,16.21
2023-05-03T13:19:00.269Z,16.81
2023-05-03T13:21:48.514Z,17.23
2023-05-03T13:24:33.984Z,17.56
2023-05-03T13:27:19.688Z,17.78
2023-05-03T13:30:05.367Z,17.91
2023-05-03T13:32:51.326Z,18.27
2023-05-03T13:35:37.228Z,18.56
2023-05-03T13:38:22.626Z,18.80
2023-05-03T13:41:08.685Z,18.80
2023-05-03T13:43:54.207Z,18.61
2023-05-03T13:46:40.895Z,18.28
2023-05-03T13:49:26.902Z,17.86
2023-05-03T13:52:12.394Z,17.39
2023-05-03T13:54:58.378Z,17.10
2023-05-03T13:57:44.554Z,16.84
2023-05-03T14:00:32.158Z,16.79
2023-05-03T14:03:18.308Z,16.75
2023-05-03T14:06:04.255Z,16.78
2023-05-03T14:08:49.788Z,16.80
2023-05-03T14:11:35.685Z,17.12
2023-05-03T14:14:21.203Z,17.52
2023-05-03T14:17:06.732Z,17.89
2023-05-03T14:19:52.580Z,18.36
2023-05-03T14:22:38.107Z,18.85
2023-05-03T14:25:23.666Z,19.11
2023-05-03T14:28:09.653Z,19.16
2023-05-03T14:30:55.143Z,19.02
2023-05-03T14:33:40.795Z,18.68
2023-05-03T14:36:29.608Z,18.33
2023-05-03T14:39:15.225Z,18.07
2023-05-03T14:42:00.913Z,17.95
2023-05-03T14:44:46.494Z,17.95
2023-05-03T14:47:32.920Z,18.09
2023-05-03T14:50:18.636Z,18.22
2023-05-03T14:53:04.081Z,18.29
2023-05-03T14:55:50.162Z,18.30
2023-05-03T14:58:35.345Z,18.26
2023-05-03T15:01:22.518Z,18.26
2023-05-03T15:04:08.033Z,18.20
2023-05-03T15:06:54.417Z,18.16
2023-05-03T15:09:39.867Z,18.18
2023-05-03T15:12:25.200Z,18.24
2023-05-03T15:15:12.108Z,18.16
2023-05-03T15:17:57.933Z,18.11
2023-05-03T15:20:43.214Z,18.11
2023-05-03T15:23:28.502Z,18.03
2023-05-03T15:26:13.845Z,17.98
2023-05-03T15:28:59.233Z,17.96
2023-05-03T15:31:44.964Z,17.91
2023-05-03T15:34:31.075Z,17.91
2023-05-03T15:37:16.512Z,17.91
2023-05-03T15:40:03.844Z,17.88
2023-05-03T15:42:49.750Z,17.83
2023-05-03T15:45:35.507Z,17.73
2023-05-03T15:48:20.753Z,17.60
2023-05-03T15:51:06.185Z,17.46
2023-05-03T15:53:52.312Z,17.38
2023-05-03T15:56:37.981Z,17.32
2023-05-03T15:59:23.397Z,17.22
2023-05-03T16:02:09.292Z,17.24
2023-05-03T16:04:55.079Z,17.21
2023-05-03T16:07:40.485Z,17.20
2023-05-03T16:10:26.741Z,17.10
2023-05-03T16:13:12.435Z,16.95
2023-05-03T16:15:57.856Z,16.77
2023-05-03T16:18:43.292Z,16.63
2023-05-03T16:21:28.562Z,16.57
2023-05-03T16:24:14.001Z,16.52
2023-05-03T16:26:59.602Z,16.53
2023-05-03T16:29:45.200Z,16.54
2023-05-03T16:32:30.727Z,16.57
2023-05-03T16:35:16.249Z,16.62
2023-05-03T16:38:01.701Z,16.71
2023-05-03T16:40:47.525Z,16.79
2023-05-03T16:43:32.698Z,16.89
2023-05-03T16:46:18.104Z,16.99
2023-05-03T16:49:04.599Z,17.12
2023-05-03T16:51:50.136Z,17.27
2023-05-03T16:54:35.933Z,17.36
2023-05-03T16:57:21.274Z,17.51
2023-05-03T17:00:11.335Z,17.57
2023-05-03T17:02:57.180Z,17.47
2023-05-03T17:05:42.833Z,17.29
2023-05-03T17:08:28.664Z,17.08
2023-05-03T17:11:14.909Z,16.87
2023-05-03T17:14:03.506Z,16.72
2023-05-03T17:16:49.225Z,16.50
2023-05-03T17:19:35.128Z,16.44
2023-05-03T17:22:20.783Z,16.36
2023-05-03T17:25:07.821Z,16.30
2023-05-03T17:27:53.598Z,16.19
2023-05-03T17:30:39.286Z,16.11
2023-05-03T17:33:25.986Z,15.98
2023-05-03T17:36:11.498Z,15.88
2023-05-03T17:38:57.140Z,15.77
2023-05-03T17:41:42.872Z,15.66
2023-05-03T17:44:28.082Z,15.57
2023-05-03T17:47:13.774Z,15.47
2023-05-03T17:49:59.623Z,15.39
2023-05-03T17:52:45.316Z,15.22
2023-05-03T17:55:35.051Z,15.10
2023-05-03T17:58:21.029Z,14.99
2023-05-03T18:01:09.184Z,14.96
2023-05-03T18:03:54.542Z,14.80
2023-05-03T18:06:39.834Z,14.72
2023-05-03T18:09:26.765Z,14.67
2023-05-03T18:12:13.902Z,14.57
2023-05-03T18:15:02.075Z,14.49
2023-05-03T18:17:47.623Z,14.40
2023-05-03T18:20:33.271Z,14.28
2023-05-03T18:23:18.742Z,14.22
2023-05-03T18:26:04.079Z,14.16
2023-05-03T18:28:49.907Z,14.12
2023-05-03T18:31:36.857Z,14.07
2023-05-03T18:34:22.773Z,14.00
2023-05-03T18:37:08.633Z,13.88
2023-05-03T18:39:53.950Z,13.78
2023-05-03T18:42:39.362Z,13.71
2023-05-03T18:45:25.521Z,13.63
2023-05-03T18:48:10.904Z,13.58
2023-05-03T18:50:56.346Z,13.54
2023-05-03T18:53:41.717Z,13.50
2023-05-03T18:56:30.218Z,13.45
2023-05-03T18:59:15.331Z,13.41
2023-05-03T19:02:01.660Z,13.36
2023-05-03T19:04:47.565Z,13.32
2023-05-03T19:07:33.231Z,13.27
2023-05-03T19:10:20.020Z,13.24
2023-05-03T19:13:05.737Z,13.18
2023-05-03T19:15:50.999Z,13.14
2023-05-03T19:18:44.322Z,13.09
2023-05-03T19:21:29.823Z,13.05
2023-05-03T19:24:15.438Z,13.01
2023-05-03T19:27:00.914Z,12.97
2023-05-03T19:29:46.329Z,12.90
2023-05-03T19:32:35.397Z,12.89
2023-05-03T19:35:20.995Z,12.86
2023-05-03T19:38:07.363Z,12.84
2023-05-03T19:41:00.490Z,12.82
2023-05-03T19:43:46.060Z,12.79
2023-05-03T19:46:32.133Z,12.71
2023-05-03T19:49:17.967Z,12.68
2023-05-03T19:52:05.923Z,12.65
2023-05-03T19:54:51.490Z,12.59
2023-05-03T19:57:38.121Z,12.53
2023-05-03T20:00:23.675Z,12.48
2023-05-03T20:03:09.551Z,12.41
2023-05-03T20:05:54.858Z,12.40
2023-05-03T20:08:40.529Z,12.37
2023-05-03T20:11:26.317Z,12.37
2023-05-03T20:14:11.755Z,12.31
2023-05-03T20:16:57.210Z,12.27
2023-05-03T20:19:42.725Z,12.30
2023-05-03T20:22:28.205Z,12.30
2023-05-03T20:25:13.649Z,12.27
2023-05-03T20:27:59.090Z,12.25
2023-05-03T20:30:44.310Z,12.24
2023-05-03T20:33:29.840Z,12.30
2023-05-03T20:36:15.421Z,12.34
2023-05-03T20:39:00.871Z,12.33
2023-05-03T20:41:46.496Z,12.28
2023-05-03T20:44:32.383Z,12.22
2023-05-03T20:47:18.312Z,12.18
2023-05-03T20:50:04.401Z,12.14
2023-05-03T20:52:50.496Z,12.09
2023-05-03T20:55:36.146Z,12.03
2023-05-03T20:58:21.759Z,11.95
2023-05-03T21:01:08.223Z,11.92
2023-05-03T21:03:55.292Z,11.91
2023-05-03T21:06:43.690Z,11.88
2023-05-03T21:09:31.306Z,11.84
2023-05-03T21:12:17.014Z,11.81
2023-05-03T21:15:02.793Z,11.76
2023-05-03T21:17:48.262Z,11.75
2023-05-03T21:20:34.279Z,11.75
2023-05-03T21:23:19.905Z,11.74
2023-05-03T21:26:05.229Z,11.71
2023-05-03T21:28:50.949Z,11.70
2023-05-03T21:31:37.765Z,11.62
2023-05-03T21:34:23.457Z,11.60
2023-05-03T21:37:08.902Z,11.60
2023-05-03T21:40:01.407Z,11.60
2023-05-03T21:42:50.104Z,11.60
2023-05-03T21:45:36.164Z,11.56
2023-05-03T21:48:22.675Z,11.55
2023-05-03T21:51:09.097Z,11.52
2023-05-03T21:53:54.564Z,11.48
2023-05-03T21:56:39.991Z,11.45
2023-05-03T21:59:25.347Z,11.36
2023-05-03T22:02:11.153Z,11.31
2023-05-03T22:04:56.776Z,11.26
2023-05-03T22:07:42.287Z,11.23
2023-05-03T22:10:27.994Z,11.17
2023-05-03T22:13:13.301Z,11.12
2023-05-03T22:16:11.458Z,11.02
2023-05-03T22:18:57.063Z,10.95
2023-05-03T22:21:42.640Z,10.86
2023-05-03T22:24:29.405Z,10.81
2023-05-03T22:27:15.081Z,10.72
2023-05-03T22:30:00.447Z,10.66
2023-05-03T22:32:45.912Z,10.58
2023-05-03T22:35:31.630Z,10.51
2023-05-03T22:38:17.519Z,10.41
2023-05-03T22:41:02.785Z,10.35
2023-05-03T22:43:48.318Z,10.28
2023-05-03T22:46:33.779Z,10.22
2023-05-03T22:49:20.139Z,10.18
2023-05-03T22:52:05.859Z,10.15
2023-05-03T22:54:56.252Z,10.13
2023-05-03T22:57:41.963Z,10.11
2023-05-03T23:00:28.091Z,10.12
2023-05-03T23:03:13.720Z,10.15
2023-05-03T23:05:59.379Z,10.17
2023-05-03T23:08:45.128Z,10.17
2023-05-03T23:11:30.700Z,10.19
2023-05-03T23:14:16.088Z,10.20
2023-05-03T23:17:01.494Z,10.25
2023-05-03T23:19:47.603Z,10.26
2023-05-03T23:22:33.027Z,10.30
2023-05-03T23:25:18.310Z,10.35
2023-05-03T23:28:03.970Z,10.37
2023-05-03T23:30:49.390Z,10.41
2023-05-03T23:33:35.203Z,10.39
2023-05-03T23:36:20.759Z,10.38
2023-05-03T23:39:06.073Z,10.37
2023-05-03T23:41:51.679Z,10.37
2023-05-03T23:44:53.117Z,10.35
2023-05-03T23:47:39.458Z,10.34
2023-05-03T23:50:24.831Z,10.33
2023-05-03T23:53:10.197Z,10.32
2023-05-03T23:55:55.764Z,10.30
2023-05-03T23:58:41.554Z,10.25
